createdAt,value
2022-08-08T00:00:54.071Z,4.05
2022-08-08T00:03:13.335Z,5.20
2022-08-08T00:06:28.528Z,4.40
2022-08-08T00:09:16.162Z,3.78
2022-08-08T00:12:09.980Z,3.90
2022-08-08T00:14:54.761Z,4.38
2022-08-08T00:18:01.581Z,4.43
2022-08-08T00:20:49.460Z,4.32
2022-08-08T00:23:42.976Z,4.65
2022-08-08T00:26:21.881Z,4.60
2022-08-08T00:29:21.487Z,4.57
2022-08-08T00:32:35.460Z,4.28
2022-08-08T00:35:20.077Z,4.20
2022-08-08T00:38:16.956Z,3.88
2022-08-08T00:41:54.901Z,4.15
2022-08-08T00:44:44.123Z,3.40
2022-08-08T00:48:05.577Z,5.03
2022-08-08T00:50:40.679Z,4.38
2022-08-08T00:53:29.391Z,4.65
2022-08-08T00:56:16.467Z,6.03
2022-08-08T00:58:54.403Z,6.63
2022-08-08T01:01:40.584Z,5.97
2022-08-08T01:04:52.645Z,6.82
2022-08-08T01:07:34.717Z,6.07
2022-08-08T01:10:49.838Z,5.38
2022-08-08T01:13:38.082Z,6.80
2022-08-08T01:16:46.473Z,5.72
2022-08-08T01:20:03.061Z,6.25
2022-08-08T01:23:01.000Z,5.50
2022-08-08T01:25:48.192Z,6.43
2022-08-08T01:28:28.000Z,7.53
2022-08-08T01:32:03.019Z,5.95
2022-08-08T01:34:22.600Z,6.32
2022-08-08T01:37:13.659Z,6.60
2022-08-08T01:39:59.068Z,6.97
2022-08-08T01:42:41.337Z,6.88
2022-08-08T01:45:38.824Z,7.40
2022-08-08T01:48:30.689Z,6.47
2022-08-08T01:50:58.365Z,6.32
2022-08-08T01:54:29.767Z,7.15
2022-08-08T01:56:37.216Z,6.43
2022-08-08T02:00:00.842Z,7.20
2022-08-08T02:02:45.857Z,6.53
2022-08-08T02:06:02.949Z,6.95
2022-08-08T02:09:01.402Z,7.07
2022-08-08T02:11:52.725Z,7.00
2022-08-08T02:14:55.953Z,7.63
2022-08-08T02:17:42.625Z,7.00
2022-08-08T02:21:01.933Z,7.10
2022-08-08T02:23:35.181Z,6.22
2022-08-08T02:26:15.825Z,6.05
2022-08-08T02:29:31.415Z,5.63
2022-08-08T02:32:22.260Z,6.18
2022-08-08T02:35:07.496Z,5.55
2022-08-08T02:37:52.411Z,5.75
2022-08-08T02:40:42.130Z,4.95
2022-08-08T02:44:37.592Z,5.60
2022-08-08T02:49:18.632Z,5.88
2022-08-08T02:52:35.191Z,6.13
2022-08-08T02:55:40.510Z,6.40
2022-08-08T02:58:28.544Z,5.95
2022-08-08T03:01:32.783Z,6.60
2022-08-08T03:05:08.731Z,6.03
2022-08-08T03:07:24.770Z,6.07
2022-08-08T03:10:09.370Z,7.65
2022-08-08T03:15:54.192Z,5.80
2022-08-08T03:16:35.899Z,5.20
2022-08-08T03:19:27.921Z,5.95
2022-08-08T03:21:58.947Z,5.53
2022-08-08T03:24:28.699Z,5.97
2022-08-08T03:27:27.357Z,6.15
2022-08-08T03:30:02.016Z,5.85
2022-08-08T03:32:57.736Z,6.88
2022-08-08T03:35:33.296Z,7.43
2022-08-08T03:38:55.863Z,8.00
2022-08-08T03:40:53.623Z,7.55
2022-08-08T03:43:21.551Z,6.97
2022-08-08T03:46:05.359Z,7.38
2022-08-08T03:49:09.491Z,7.70
2022-08-08T03:51:35.402Z,7.63
2022-08-08T03:54:10.284Z,8.10
2022-08-08T03:56:43.512Z,7.55
2022-08-08T03:59:23.062Z,7.82
2022-08-08T04:02:23.034Z,8.43
2022-08-08T04:04:40.012Z,7.43
2022-08-08T04:07:08.740Z,8.43
2022-08-08T04:09:58.972Z,7.28
2022-08-08T04:12:24.354Z,7.03
2022-08-08T04:14:51.354Z,7.68
2022-08-08T04:17:46.741Z,7.82
2022-08-08T04:20:08.148Z,7.03
2022-08-08T04:22:35.967Z,8.00
2022-08-08T04:25:03.683Z,8.35
2022-08-08T04:28:02.418Z,7.47
2022-08-08T04:30:19.572Z,6.97
2022-08-08T04:32:47.930Z,7.15
2022-08-08T04:35:17.220Z,6.93
2022-08-08T04:37:44.745Z,6.53
2022-08-08T04:40:12.894Z,6.55
2022-08-08T04:42:46.890Z,6.75
2022-08-08T04:45:23.669Z,6.97
2022-08-08T04:47:53.409Z,7.05
2022-08-08T04:50:24.735Z,6.55
2022-08-08T04:52:58.629Z,6.20
2022-08-08T04:55:37.640Z,7.28
2022-08-08T04:58:17.519Z,6.32
2022-08-08T05:00:45.058Z,6.25
2022-08-08T05:03:19.084Z,6.03
2022-08-08T05:06:01.465Z,6.15
2022-08-08T05:08:40.969Z,5.93
2022-08-08T05:11:08.562Z,6.10
2022-08-08T05:13:37.251Z,8.43
2022-08-08T05:16:50.861Z,6.00
2022-08-08T05:20:11.904Z,6.25
2022-08-08T05:22:00.990Z,6.97
2022-08-08T05:24:27.936Z,6.85
2022-08-08T05:26:58.209Z,6.68
2022-08-08T05:29:29.077Z,6.95
2022-08-08T05:32:05.335Z,6.50
2022-08-08T05:34:50.286Z,5.85
2022-08-08T05:37:39.505Z,5.97
2022-08-08T05:40:16.788Z,5.95
2022-08-08T05:42:46.388Z,5.72
2022-08-08T05:45:25.071Z,6.03
2022-08-08T05:48:08.991Z,6.15
2022-08-08T05:50:38.772Z,6.60
2022-08-08T05:53:53.719Z,5.90
2022-08-08T05:56:09.676Z,5.78
2022-08-08T05:58:53.764Z,5.00
2022-08-08T06:01:51.271Z,5.65
2022-08-08T06:04:23.486Z,5.32
2022-08-08T06:06:56.791Z,5.60
2022-08-08T06:10:00.122Z,4.68
2022-08-08T06:12:30.902Z,4.53
2022-08-08T06:15:00.620Z,4.63
2022-08-08T06:17:50.409Z,5.28
2022-08-08T06:20:16.365Z,5.55
2022-08-08T06:22:46.380Z,4.95
2022-08-08T06:25:16.429Z,4.55
2022-08-08T06:27:56.327Z,4.57
2022-08-08T06:30:28.349Z,4.13
2022-08-08T06:32:58.217Z,4.13
2022-08-08T06:36:07.274Z,4.72
2022-08-08T06:38:27.447Z,4.25
2022-08-08T06:41:04.010Z,4.32
2022-08-08T06:43:35.708Z,4.22
2022-08-08T06:48:30.630Z,4.22
2022-08-08T06:50:59.266Z,4.07
2022-08-08T06:53:39.633Z,3.38
2022-08-08T06:56:16.666Z,3.65
2022-08-08T06:58:43.685Z,3.30
2022-08-08T07:02:17.026Z,3.42
2022-08-08T07:04:37.800Z,3.65
2022-08-08T07:06:56.989Z,3.35
2022-08-08T07:09:45.305Z,3.40
2022-08-08T07:12:32.697Z,3.70
2022-08-08T07:15:06.042Z,2.83
2022-08-08T07:17:56.576Z,3.33
2022-08-08T07:23:02.530Z,3.15
2022-08-08T07:25:34.717Z,3.13
2022-08-08T07:28:19.639Z,2.80
2022-08-08T07:30:47.074Z,2.70
2022-08-08T07:33:17.446Z,2.80
2022-08-08T07:35:47.280Z,2.58
2022-08-08T07:38:21.126Z,2.63
2022-08-08T07:40:59.007Z,2.20
2022-08-08T07:43:36.990Z,2.25
2022-08-08T07:46:24.545Z,2.35
2022-08-08T07:48:52.329Z,2.17
2022-08-08T07:51:23.992Z,2.65
2022-08-08T07:54:49.120Z,1.90
2022-08-08T07:57:29.796Z,2.22
2022-08-08T08:00:16.293Z,2.28
2022-08-08T08:02:45.016Z,1.63
2022-08-08T08:05:26.260Z,2.35
2022-08-08T08:08:04.250Z,2.92
2022-08-08T08:10:35.704Z,1.77
2022-08-08T08:13:25.286Z,2.08
2022-08-08T08:16:20.396Z,2.10
2022-08-08T08:19:02.382Z,1.85
2022-08-08T08:21:44.940Z,1.85
2022-08-08T08:24:21.356Z,1.80
2022-08-08T08:26:57.866Z,1.95
2022-08-08T08:29:27.705Z,2.33
2022-08-08T08:31:57.970Z,2.58
2022-08-08T08:34:31.883Z,1.77
2022-08-08T08:37:07.802Z,1.85
2022-08-08T08:40:00.472Z,1.88
2022-08-08T08:42:31.947Z,1.67
2022-08-08T08:45:21.992Z,1.75
2022-08-08T08:50:33.129Z,1.60
2022-08-08T08:53:27.978Z,1.77
2022-08-08T08:55:56.050Z,1.50
2022-08-08T08:58:33.825Z,2.45
2022-08-08T09:01:10.313Z,1.70
2022-08-08T09:03:50.513Z,1.63
2022-08-08T09:06:33.301Z,1.52
2022-08-08T09:09:18.809Z,1.60
2022-08-08T09:12:06.064Z,1.25
2022-08-08T09:14:35.216Z,1.80
2022-08-08T09:17:09.668Z,1.65
2022-08-08T09:21:56.670Z,1.30
2022-08-08T09:22:28.228Z,1.17
2022-08-08T09:24:56.275Z,1.40
2022-08-08T09:27:42.035Z,1.20
2022-08-08T09:30:17.914Z,1.27
2022-08-08T09:33:54.504Z,1.50
2022-08-08T09:35:48.900Z,1.40
2022-08-08T09:38:28.615Z,1.40
2022-08-08T09:41:00.014Z,1.20
2022-08-08T09:43:40.785Z,1.45
2022-08-08T09:46:25.797Z,1.23
2022-08-08T09:49:17.964Z,1.52
2022-08-08T09:52:07.467Z,1.15
2022-08-08T09:54:45.668Z,1.40
2022-08-08T09:57:34.968Z,1.40
2022-08-08T10:02:57.800Z,1.10
2022-08-08T10:05:31.067Z,1.10
2022-08-08T10:07:59.812Z,1.20
2022-08-08T10:10:32.891Z,1.27
2022-08-08T10:13:29.981Z,1.40
2022-08-08T10:16:01.982Z,1.60
2022-08-08T10:18:36.403Z,1.30
2022-08-08T10:21:26.114Z,1.13
2022-08-08T10:24:03.186Z,1.13
2022-08-08T10:26:57.163Z,0.88
2022-08-08T10:29:57.080Z,0.90
2022-08-08T10:32:34.520Z,1.33
2022-08-08T10:36:07.654Z,1.20
2022-08-08T10:38:16.601Z,1.15
2022-08-08T10:40:45.917Z,1.15
2022-08-08T10:43:14.450Z,1.13
2022-08-08T10:45:56.619Z,0.80
2022-08-08T10:48:57.639Z,1.23
2022-08-08T10:51:40.853Z,1.25
2022-08-08T10:54:24.880Z,1.00
2022-08-08T10:57:00.461Z,1.08
2022-08-08T10:59:31.387Z,1.25
2022-08-08T11:02:07.548Z,1.00
2022-08-08T11:04:53.622Z,0.80
2022-08-08T11:08:30.151Z,1.05
2022-08-08T11:10:29.443Z,1.20
2022-08-08T11:13:28.450Z,1.05
2022-08-08T11:15:58.828Z,0.82
2022-08-08T11:18:30.507Z,0.95
2022-08-08T11:21:10.148Z,1.00
2022-08-08T11:23:42.189Z,0.90
2022-08-08T11:26:18.903Z,1.05
2022-08-08T11:28:47.806Z,1.10
2022-08-08T11:31:18.298Z,1.10
2022-08-08T11:34:01.593Z,1.20
2022-08-08T11:36:31.354Z,1.15
2022-08-08T11:38:59.026Z,1.10
2022-08-08T11:41:33.767Z,0.90
2022-08-08T11:44:02.289Z,1.05
2022-08-08T11:46:31.756Z,1.10
2022-08-08T11:49:05.123Z,1.10
2022-08-08T11:51:40.117Z,0.93
2022-08-08T11:54:31.185Z,1.00
2022-08-08T11:57:18.302Z,1.08
2022-08-08T12:00:02.877Z,1.20
2022-08-08T12:02:45.294Z,2.05
2022-08-08T12:05:13.427Z,1.35
2022-08-08T12:07:52.181Z,1.10
2022-08-08T12:10:21.660Z,1.13
2022-08-08T12:12:49.649Z,1.23
2022-08-08T12:15:41.934Z,1.10
2022-08-08T12:20:41.733Z,1.10
2022-08-08T12:23:25.062Z,1.08
2022-08-08T12:25:56.754Z,0.90
2022-08-08T12:28:23.821Z,1.00
2022-08-08T12:30:51.088Z,1.42
2022-08-08T12:33:37.848Z,1.02
2022-08-08T12:36:14.645Z,0.70
2022-08-08T12:38:55.161Z,0.68
2022-08-08T12:41:33.954Z,1.20
2022-08-08T12:44:10.114Z,0.95
2022-08-08T12:46:37.335Z,1.02
2022-08-08T12:49:25.096Z,1.00
2022-08-08T12:51:58.516Z,0.90
2022-08-08T12:54:38.205Z,0.95
2022-08-08T12:57:23.466Z,0.80
2022-08-08T13:00:04.903Z,0.88
2022-08-08T13:02:52.513Z,0.80
2022-08-08T13:05:26.808Z,1.35
2022-08-08T13:08:21.279Z,1.10
2022-08-08T13:10:57.234Z,0.93
2022-08-08T13:13:37.204Z,0.95
2022-08-08T13:16:21.793Z,0.90
2022-08-08T13:19:00.529Z,1.30
2022-08-08T13:21:49.095Z,1.00
2022-08-08T13:24:39.367Z,0.95
2022-08-08T13:27:11.933Z,1.00
2022-08-08T13:29:59.893Z,0.75
2022-08-08T13:32:30.420Z,1.00
2022-08-08T13:34:59.430Z,0.90
2022-08-08T13:38:05.756Z,0.98
2022-08-08T13:40:18.017Z,1.17
2022-08-08T13:42:54.339Z,0.80
2022-08-08T13:45:22.951Z,0.98
2022-08-08T13:48:03.061Z,1.13
2022-08-08T13:50:50.452Z,1.42
2022-08-08T13:53:31.555Z,0.80
2022-08-08T13:56:05.206Z,0.90
2022-08-08T14:01:18.290Z,1.00
2022-08-08T14:03:55.466Z,0.70
2022-08-08T14:06:34.369Z,0.70
2022-08-08T14:09:24.550Z,1.08
2022-08-08T14:11:50.035Z,0.82
2022-08-08T14:14:21.019Z,1.00
2022-08-08T14:16:52.597Z,1.00
2022-08-08T14:19:57.345Z,1.40
2022-08-08T14:22:21.575Z,0.80
2022-08-08T14:24:59.824Z,1.15
2022-08-08T14:27:35.252Z,0.80
2022-08-08T14:30:04.451Z,1.10
2022-08-08T14:32:54.853Z,0.80
2022-08-08T14:35:35.090Z,0.88
2022-08-08T14:38:34.723Z,0.85
2022-08-08T14:40:59.501Z,0.88
2022-08-08T14:44:01.972Z,1.00
2022-08-08T14:46:22.203Z,0.88
2022-08-08T14:49:02.665Z,0.85
2022-08-08T14:54:16.225Z,0.85
2022-08-08T14:56:56.290Z,0.90
2022-08-08T14:59:44.620Z,0.90
2022-08-08T15:02:13.967Z,1.10
2022-08-08T15:04:43.260Z,1.00
2022-08-08T15:07:22.202Z,1.17
2022-08-08T15:09:50.027Z,0.90
2022-08-08T15:12:27.391Z,1.05
2022-08-08T15:14:55.573Z,0.95
2022-08-08T15:17:22.739Z,1.30
2022-08-08T15:19:50.839Z,0.77
2022-08-08T15:22:23.535Z,1.10
2022-08-08T15:24:51.356Z,1.10
2022-08-08T15:27:57.761Z,0.93
2022-08-08T15:30:08.124Z,0.85
2022-08-08T15:32:39.908Z,0.85
2022-08-08T15:35:07.557Z,0.90
2022-08-08T15:37:34.570Z,1.00
2022-08-08T15:40:01.662Z,1.02
2022-08-08T15:42:32.182Z,0.93
2022-08-08T15:45:03.576Z,0.85
2022-08-08T15:47:31.450Z,1.23
2022-08-08T15:49:59.076Z,1.10
2022-08-08T15:52:26.022Z,1.02
2022-08-08T15:54:54.033Z,1.00
2022-08-08T15:57:21.993Z,0.90
2022-08-08T16:00:05.661Z,1.40
2022-08-08T16:02:37.517Z,0.90
2022-08-08T16:05:14.190Z,0.80
2022-08-08T16:07:52.990Z,0.88
2022-08-08T16:13:08.886Z,1.20
2022-08-08T16:13:30.745Z,0.88
2022-08-08T16:16:16.504Z,0.77
2022-08-08T16:18:56.958Z,1.00
2022-08-08T16:21:26.826Z,1.02
2022-08-08T16:23:55.593Z,1.00
2022-08-08T16:26:34.037Z,0.73
2022-08-08T16:29:08.234Z,1.00
2022-08-08T16:31:42.101Z,0.90
2022-08-08T16:34:17.522Z,0.82
2022-08-08T16:36:45.685Z,0.90
2022-08-08T16:39:54.959Z,1.27
2022-08-08T16:42:05.022Z,1.13
2022-08-08T16:44:34.358Z,1.23
2022-08-08T16:47:40.040Z,0.90
2022-08-08T16:50:14.674Z,1.60
2022-08-08T16:55:02.808Z,1.98
2022-08-08T16:55:52.925Z,1.00
2022-08-08T16:58:26.404Z,1.27
2022-08-08T17:00:55.198Z,1.35
2022-08-08T17:03:25.002Z,1.30
2022-08-08T17:06:37.628Z,1.17
2022-08-08T17:08:57.134Z,1.08
2022-08-08T17:11:28.003Z,1.20
2022-08-08T17:14:00.972Z,1.42
2022-08-08T17:16:29.153Z,1.00
2022-08-08T17:18:56.733Z,1.05
2022-08-08T17:21:26.123Z,1.10
2022-08-08T17:24:00.878Z,1.08
2022-08-08T17:26:29.783Z,1.08
2022-08-08T17:28:58.586Z,0.98
2022-08-08T17:31:44.316Z,1.20
2022-08-08T17:34:37.027Z,1.05
2022-08-08T17:37:09.175Z,1.20
2022-08-08T17:40:04.063Z,1.00
2022-08-08T17:42:25.465Z,1.20
2022-08-08T17:44:53.072Z,1.10
2022-08-08T17:47:24.198Z,1.38
2022-08-08T17:50:08.341Z,1.30
2022-08-08T17:52:38.137Z,1.23
2022-08-08T17:56:03.771Z,1.30
2022-08-08T17:57:53.572Z,1.42
2022-08-08T18:00:21.455Z,0.95
2022-08-08T18:03:09.079Z,1.10
2022-08-08T18:05:44.165Z,1.10
2022-08-08T18:08:24.657Z,1.10
2022-08-08T18:11:03.637Z,0.88
2022-08-08T18:13:34.956Z,1.15
2022-08-08T18:16:09.120Z,1.00
2022-08-08T18:18:42.835Z,1.17
2022-08-08T18:21:24.847Z,1.17
2022-08-08T18:23:59.965Z,1.40
2022-08-08T18:26:29.004Z,1.30
2022-08-08T18:28:56.536Z,1.10
2022-08-08T18:31:25.179Z,1.02
2022-08-08T18:34:12.412Z,1.45
2022-08-08T18:36:48.022Z,1.42
2022-08-08T18:39:27.848Z,0.95
2022-08-08T18:41:59.817Z,1.50
2022-08-08T18:44:35.850Z,1.15
2022-08-08T18:47:03.493Z,1.15
2022-08-08T18:49:32.267Z,1.33
2022-08-08T18:52:16.916Z,1.27
2022-08-08T18:54:45.691Z,1.20
2022-08-08T18:59:54.230Z,1.20
2022-08-08T19:02:28.117Z,1.10
2022-08-08T19:04:56.451Z,1.33
2022-08-08T19:07:25.757Z,0.85
2022-08-08T19:10:15.555Z,1.60
2022-08-08T19:12:44.669Z,1.63
2022-08-08T19:15:21.626Z,1.25
2022-08-08T19:18:33.002Z,1.88
2022-08-08T19:20:42.923Z,1.50
2022-08-08T19:23:13.502Z,1.60
2022-08-08T19:26:19.790Z,1.30
2022-08-08T19:28:28.802Z,1.90
2022-08-08T19:31:03.778Z,1.63
2022-08-08T19:33:51.881Z,1.30
2022-08-08T19:36:27.448Z,1.45
2022-08-08T19:38:58.274Z,1.38
2022-08-08T19:41:29.639Z,1.35
2022-08-08T19:44:02.844Z,1.73
2022-08-08T19:46:33.771Z,1.98
2022-08-08T19:49:01.604Z,1.45
2022-08-08T19:51:34.743Z,1.25
2022-08-08T19:54:07.181Z,1.77
2022-08-08T19:56:40.700Z,1.30
2022-08-08T19:59:12.808Z,1.70
2022-08-08T20:04:27.793Z,1.50
2022-08-08T20:06:56.838Z,1.38
2022-08-08T20:09:24.971Z,1.40
2022-08-08T20:11:52.125Z,1.80
2022-08-08T20:14:34.510Z,1.65
2022-08-08T20:17:03.508Z,1.70
2022-08-08T20:19:33.517Z,1.40
2022-08-08T20:22:13.329Z,1.45
2022-08-08T20:24:48.389Z,1.67
2022-08-08T20:27:16.503Z,1.50
2022-08-08T20:30:00.990Z,1.70
2022-08-08T20:32:29.999Z,1.60
2022-08-08T20:35:01.961Z,1.80
2022-08-08T20:37:53.038Z,1.60
2022-08-08T20:40:17.428Z,2.40
2022-08-08T20:42:55.070Z,1.45
2022-08-08T20:45:55.312Z,1.95
2022-08-08T20:48:09.634Z,2.63
2022-08-08T20:50:36.834Z,2.28
2022-08-08T20:53:06.764Z,3.58
2022-08-08T20:55:43.186Z,2.45
2022-08-08T20:58:23.002Z,3.28
2022-08-08T21:00:50.743Z,2.90
2022-08-08T21:03:17.702Z,2.80
2022-08-08T21:05:49.185Z,2.55
2022-08-08T21:08:35.971Z,2.03
2022-08-08T21:11:12.305Z,2.83
2022-08-08T21:13:41.750Z,3.50
2022-08-08T21:16:17.995Z,2.65
2022-08-08T21:18:47.306Z,2.45
2022-08-08T21:21:20.575Z,2.67
2022-08-08T21:24:09.317Z,2.90
2022-08-08T21:26:46.226Z,2.47
2022-08-08T21:29:19.803Z,2.38
2022-08-08T21:31:53.329Z,2.55
2022-08-08T21:34:49.705Z,2.53
2022-08-08T21:37:19.140Z,2.80
2022-08-08T21:39:54.666Z,2.70
2022-08-08T21:42:23.829Z,2.97
2022-08-08T21:44:59.036Z,2.83
2022-08-08T21:48:06.282Z,2.88
2022-08-08T21:50:27.943Z,2.97
2022-08-08T21:54:32.566Z,3.05
2022-08-08T21:56:20.303Z,2.67
2022-08-08T21:58:32.023Z,3.28
2022-08-08T22:00:59.680Z,3.30
2022-08-08T22:06:07.084Z,3.25
2022-08-08T22:08:42.044Z,2.97
2022-08-08T22:11:59.525Z,3.60
2022-08-08T22:14:06.804Z,3.00
2022-08-08T22:16:34.477Z,3.38
2022-08-08T22:19:09.111Z,3.05
2022-08-08T22:21:42.444Z,2.90
2022-08-08T22:24:12.429Z,3.88
2022-08-08T22:27:01.529Z,4.47
2022-08-08T22:30:01.001Z,4.32
2022-08-08T22:32:18.180Z,5.00
2022-08-08T22:34:50.541Z,5.03
2022-08-08T22:37:28.260Z,4.03
2022-08-08T22:40:16.379Z,4.78
2022-08-08T22:42:45.575Z,4.25
2022-08-08T22:45:15.166Z,4.50
2022-08-08T22:47:49.532Z,4.38
2022-08-08T22:50:26.515Z,4.22
2022-08-08T22:54:29.123Z,4.45
2022-08-08T22:55:58.517Z,4.43
2022-08-08T22:58:34.175Z,4.15
2022-08-08T23:01:30.214Z,4.22
2022-08-08T23:03:53.555Z,4.30
2022-08-08T23:06:21.268Z,4.28
2022-08-08T23:08:55.441Z,3.97
2022-08-08T23:11:58.009Z,4.22
2022-08-08T23:14:11.714Z,4.32
2022-08-08T23:16:44.198Z,4.22
2022-08-08T23:19:15.151Z,4.20
2022-08-08T23:21:42.753Z,4.35
2022-08-08T23:24:12.659Z,4.88
2022-08-08T23:26:55.484Z,4.68
2022-08-08T23:29:25.388Z,5.43
2022-08-08T23:31:52.909Z,5.90
2022-08-08T23:34:20.351Z,5.45
2022-08-08T23:36:48.296Z,5.65
2022-08-08T23:39:15.732Z,5.85
2022-08-08T23:41:46.808Z,6.30
2022-08-08T23:44:14.234Z,6.28
2022-08-08T23:49:00.270Z,5.97
2022-08-08T23:49:27.880Z,5.70
2022-08-08T23:52:06.770Z,5.93
2022-08-08T23:54:43.569Z,6.50
2022-08-08T23:57:38.690Z,5.30
